ADDS METAR Data INFO
IDs: Format: Raw Decoded Include TAF

Data at: 2034 UTC 20 Jul 2018

METAR for:KJCT (Junction/Kimble Cnty, TX, US)
Text:KJCT 201951Z AUTO 14010G14KT 10SM CLR 41/07 A2995 RMK AO2 SLP098 T04060067
Temperature: 40.6°C (105°F)
Dewpoint: 6.7°C ( 44°F) [RH = 13%]
Pressure (altimeter):29.95 inches Hg (1014.3 mb) [Sea level pressure: 1009.8 mb]
Winds:from the SE (140 degrees) at 12 MPH (10 knots; 5.1 m/s) gusting to 16 MPH (14 knots; 7.2 m/s)
Visibility:10 or more sm (16+ km)
Ceiling:at least 12,000 feet AGL
Clouds:sky clear below 12,000 feet AGL
QC Flag:automated observation with no human augmentation